Time;durP1;ratioP1;P1;durP2;ratioP2;P2;SDS_P1;SDS_P2;PMS_P1;PMS_P2;Temp;Humidity;BMP_temperature;BMP_pressure;BME280_temperature;BME280_humidity;BME280_pressure;Samples;Min_cycle;Max_cycle;Signal;HPM_P1;HPM_P2
2023/06/11 00:01:41;;;;;;;6.72;4.90;;;23.10;75.80;;;23.46;74.49;100851.22;5201086;28;20080;-70
2023/06/11 00:04:18;;;;;;;8.27;5.00;;;23.00;75.90;;;23.39;74.59;100854.88;5196051;28;20540;-70
2023/06/11 00:06:51;;;;;;;7.60;5.20;;;23.00;76.10;;;23.36;74.91;100860.28;5203035;28;20052;-69
2023/06/11 00:09:25;;;;;;;7.80;4.82;;;22.90;76.90;;;23.34;74.94;100856.75;5204304;28;20045;-69
2023/06/11 00:11:57;;;;;;;8.27;5.15;;;22.90;76.40;;;23.31;74.97;100851.50;5183936;28;20125;-71
2023/06/11 00:14:29;;;;;;;7.55;5.20;;;22.90;76.50;;;23.26;75.20;100854.22;5211852;28;20429;-70
2023/06/11 00:17:01;;;;;;;7.68;5.10;;;22.80;76.70;;;23.19;75.45;100849.91;5208114;28;20042;-70
2023/06/11 00:19:33;;;;;;;7.15;5.03;;;22.80;76.90;;;23.17;75.71;100842.88;5208383;28;20041;-70
2023/06/11 00:22:06;;;;;;;7.50;5.55;;;22.80;77.10;;;23.12;75.70;100847.38;5204701;28;20034;-70
2023/06/11 00:24:40;;;;;;;6.95;5.03;;;22.70;77.30;;;23.09;75.80;100844.78;5186676;28;20046;-70
2023/06/11 00:27:12;;;;;;;6.30;5.03;;;22.70;77.40;;;23.08;76.03;100843.00;5199720;28;20351;-70
2023/06/11 00:29:44;;;;;;;7.45;5.32;;;22.70;77.60;;;23.04;76.02;100849.28;5206134;28;20041;-70
2023/06/11 00:32:16;;;;;;;6.97;4.80;;;22.60;77.70;;;22.99;76.00;100839.59;5187866;28;20113;-70
2023/06/11 00:34:48;;;;;;;6.30;4.57;;;22.60;77.80;;;22.95;76.25;100844.97;5186346;28;20072;-70
2023/06/11 00:37:22;;;;;;;7.03;4.80;;;22.60;78.00;;;22.95;76.41;100842.31;5187466;28;20050;-71
2023/06/11 00:39:55;;;;;;;6.50;4.55;;;22.60;78.20;;;22.91;76.60;100841.50;5204610;28;20548;-70
2023/06/11 00:42:28;;;;;;;9.00;5.40;;;22.50;78.30;;;22.87;76.75;100845.09;5198512;28;20068;-70
2023/06/11 00:45:03;;;;;;;5.35;4.32;;;22.50;78.50;;;22.83;76.96;100838.03;5191211;28;20279;-70
2023/06/11 00:47:36;;;;;;;6.60;4.57;;;22.40;78.70;;;22.80;76.97;100838.06;5199568;28;20049;-69
2023/06/11 00:50:10;;;;;;;5.95;4.85;;;22.40;78.90;;;22.81;76.89;100845.13;5191105;28;20056;-69
2023/06/11 00:52:43;;;;;;;7.72;4.78;;;22.40;79.00;;;22.79;77.06;100835.44;5207644;28;20037;-70
2023/06/11 00:55:17;;;;;;;7.70;5.38;;;22.40;79.20;;;22.71;77.26;100844.41;5194526;28;20096;-70
2023/06/11 00:57:50;;;;;;;8.32;5.20;;;22.30;79.20;;;22.67;77.36;100844.47;5202182;28;20076;-70
2023/06/11 01:00:22;;;;;;;6.78;4.65;;;22.30;79.50;;;22.66;77.62;100840.06;5186836;28;20119;-70
2023/06/11 01:03:02;;;;;;;7.20;5.00;;;22.30;79.70;;;22.64;77.65;100847.19;5187235;28;20040;-70
2023/06/11 01:05:42;;;;;;;7.00;5.07;;;22.20;79.80;;;22.62;77.57;100851.63;5194418;28;20509;-70
2023/06/11 01:08:16;;;;;;;8.00;5.07;;;22.30;80.00;;;22.59;77.81;100854.31;5202757;28;20093;-70
2023/06/11 01:10:54;;;;;;;7.38;4.88;;;22.20;80.10;;;22.59;77.74;100851.66;5187402;28;20050;-70
2023/06/11 01:13:26;;;;;;;6.93;4.70;;;22.20;80.20;;;22.56;77.86;100849.03;5205995;28;20046;-71
2023/06/11 01:16:06;;;;;;;7.20;4.97;;;22.20;80.50;;;22.55;78.06;100847.28;5197588;28;20062;-70
2023/06/11 01:18:48;;;;;;;5.78;4.28;;;22.20;80.60;;;22.52;78.12;100850.88;5189764;28;20042;-69
2023/06/11 01:21:30;;;;;;;7.05;4.60;;;22.10;80.70;;;22.51;78.03;100842.94;5195084;28;20069;-70
2023/06/11 01:24:21;;;;;;;5.88;4.32;;;22.10;80.90;;;22.48;78.13;100843.84;5185292;28;20038;-70
2023/06/11 01:27:09;;;;;;;7.00;4.68;;;22.10;81.00;;;22.46;78.33;100857.16;5195169;28;20049;-70
2023/06/11 01:29:45;;;;;;;7.90;4.93;;;22.10;81.30;;;22.45;78.44;100846.53;5198583;28;20049;-70
2023/06/11 01:32:23;;;;;;;8.23;4.90;;;22.00;82.10;;;22.41;78.45;100851.00;5190282;28;20131;-70
2023/06/11 01:35:01;;;;;;;8.18;4.97;;;22.00;81.60;;;22.42;78.34;100851.88;5205436;28;20045;-70
2023/06/11 01:37:35;;;;;;;6.43;4.40;;;22.00;81.80;;;22.39;78.45;100851.94;5189922;28;20073;-70
2023/06/11 01:40:09;;;;;;;6.93;5.00;;;21.90;81.90;;;22.37;78.77;100845.78;5206209;28;20053;-70
2023/06/11 01:42:48;;;;;;;6.70;4.47;;;22.00;82.20;;;22.32;78.82;100855.56;5187920;28;20124;-70
2023/06/11 01:45:22;;;;;;;6.68;4.70;;;21.90;82.20;;;22.35;78.79;100852.84;5199827;28;20037;-70
2023/06/11 01:47:55;;;;;;;9.45;4.95;;;21.90;82.30;;;22.29;78.94;100850.28;5205472;28;20088;-71
2023/06/11 01:50:27;;;;;;;6.88;4.55;;;21.90;82.60;;;22.31;78.88;100860.00;5191083;28;20572;-71
2023/06/11 01:52:59;;;;;;;6.45;4.85;;;21.90;82.70;;;22.31;79.29;100854.69;5192888;28;20071;-70
2023/06/11 01:55:33;;;;;;;6.30;4.35;;;21.90;83.10;;;22.30;79.27;100850.28;5200005;28;20041;-70
2023/06/11 01:58:06;;;;;;;6.25;3.97;;;21.80;83.20;;;22.31;79.28;100856.47;5193445;28;20502;-70
2023/06/11 02:00:40;;;;;;;5.40;4.03;;;21.90;83.40;;;22.29;79.30;100856.47;5185901;28;20116;-69
2023/06/11 02:03:12;;;;;;;6.47;4.18;;;21.80;83.50;;;22.28;79.43;100860.03;5193717;28;20057;-71
2023/06/11 02:05:46;;;;;;;5.07;3.95;;;21.80;83.70;;;22.26;79.37;100861.84;5185404;28;20491;-70
2023/06/11 02:08:18;;;;;;;6.55;4.28;;;21.80;83.90;;;22.24;79.52;100857.44;5196303;28;20049;-70
2023/06/11 02:10:50;;;;;;;6.10;4.28;;;21.80;84.00;;;22.21;79.55;100863.66;5188511;28;20073;-70
2023/06/11 02:13:22;;;;;;;5.72;4.13;;;21.70;84.10;;;22.19;79.99;100868.13;5199280;28;20731;-71
2023/06/11 02:15:55;;;;;;;5.97;4.50;;;21.70;84.50;;;22.17;80.01;100876.09;5202186;28;20057;-70
2023/06/11 02:18:27;;;;;;;5.43;3.97;;;21.70;84.70;;;22.16;79.95;100881.41;5198413;28;20069;-70
2023/06/11 02:20:59;;;;;;;5.72;4.15;;;21.70;84.80;;;22.15;80.01;100872.56;5192808;28;20046;-70
2023/06/11 02:23:32;;;;;;;5.93;4.03;;;21.70;85.00;;;22.14;80.47;100869.94;5196319;28;20046;-70
2023/06/11 02:26:04;;;;;;;6.15;4.05;;;21.60;85.30;;;22.13;80.74;100870.84;5196139;28;20067;-71
2023/06/11 02:28:36;;;;;;;6.38;4.22;;;21.60;85.70;;;22.12;80.87;100871.75;5189265;28;20549;-70
2023/06/11 02:31:09;;;;;;;4.90;3.60;;;21.60;86.00;;;22.10;81.15;100873.50;5193266;28;20046;-70
2023/06/11 02:33:41;;;;;;;5.22;3.63;;;21.60;86.30;;;22.09;81.37;100871.75;5193290;28;20137;-70
2023/06/11 02:36:14;;;;;;;5.50;4.00;;;21.60;86.60;;;22.03;81.59;100874.44;5184607;28;20048;-70
2023/06/11 02:38:46;;;;;;;5.25;3.78;;;21.50;86.90;;;21.98;82.36;100865.69;5192098;28;20059;-70
2023/06/11 02:41:18;;;;;;;6.00;4.10;;;21.50;87.60;;;21.92;82.88;100872.81;5191318;28;20502;-70
2023/06/11 02:43:50;;;;;;;5.13;3.63;;;21.40;88.10;;;21.90;83.35;100876.34;5196902;28;20052;-70
2023/06/11 02:46:23;;;;;;;5.05;3.80;;;21.40;88.80;;;21.85;83.68;100871.09;5183737;28;20058;-70
2023/06/11 02:48:55;;;;;;;4.68;3.63;;;21.30;89.10;;;21.78;84.02;100881.78;5217871;28;20145;-70
2023/06/11 02:51:27;;;;;;;5.32;3.65;;;21.20;89.60;;;21.71;84.60;100882.72;5197135;28;20073;-70
2023/06/11 02:53:59;;;;;;;4.38;3.50;;;21.20;90.10;;;21.62;85.65;100884.59;5203651;28;20457;-71
2023/06/11 02:56:32;;;;;;;5.82;3.47;;;21.10;90.50;;;21.53;86.67;100883.81;5191629;28;20062;-70
2023/06/11 02:59:04;;;;;;;6.03;4.20;;;21.00;90.90;;;21.46;87.67;100884.75;5206641;28;20050;-70
2023/06/11 03:01:38;;;;;;;5.00;3.60;;;20.90;91.40;;;21.36;88.07;100879.50;5191426;28;20631;-69
2023/06/11 03:04:11;;;;;;;4.60;3.50;;;20.90;91.80;;;21.29;88.57;100877.78;5211411;28;20123;-70
2023/06/11 03:06:43;;;;;;;5.20;3.70;;;20.80;92.20;;;21.23;88.68;100880.47;5195539;28;20135;-71
2023/06/11 03:09:15;;;;;;;4.50;3.47;;;20.70;92.40;;;21.15;89.34;100882.28;5195480;28;20073;-70
2023/06/11 03:11:47;;;;;;;4.75;3.83;;;20.60;92.80;;;21.09;89.73;100882.34;5187105;28;20498;-71
2023/06/11 03:14:20;;;;;;;5.00;3.67;;;20.60;93.20;;;21.05;89.93;100885.88;5189071;28;20049;-70
2023/06/11 03:16:54;;;;;;;4.85;3.80;;;20.50;93.50;;;20.99;90.40;100896.53;5195300;28;20190;-70
2023/06/11 03:19:26;;;;;;;6.05;4.15;;;20.50;93.90;;;20.95;90.64;100884.19;5191173;28;20510;-71
2023/06/11 03:22:00;;;;;;;6.13;4.07;;;20.40;94.20;;;20.93;91.02;100886.88;5199294;28;20044;-69
2023/06/11 03:24:32;;;;;;;5.40;3.63;;;20.40;94.60;;;20.92;90.54;100889.50;5190589;28;20120;-70
2023/06/11 03:27:14;;;;;;;4.45;3.50;;;20.40;94.70;;;20.93;90.69;100893.91;5190988;28;20144;-70
2023/06/11 03:29:46;;;;;;;5.60;4.10;;;20.40;94.90;;;20.93;91.01;100886.88;5195363;28;20141;-70
2023/06/11 03:32:20;;;;;;;6.03;3.90;;;20.40;95.20;;;20.93;90.83;100892.16;5191086;28;20033;-70
2023/06/11 03:34:55;;;;;;;4.95;3.53;;;20.40;95.40;;;20.94;91.00;100887.75;5197442;28;20042;-70
2023/06/11 03:37:29;;;;;;;5.13;3.70;;;20.40;95.70;;;20.93;90.88;100888.59;5203219;28;20132;-71
2023/06/11 03:40:07;;;;;;;5.57;4.35;;;20.40;95.80;;;20.89;91.36;100894.84;5217448;28;20057;-70
2023/06/11 03:42:40;;;;;;;6.05;4.00;;;20.40;96.20;;;20.82;91.78;100889.56;5184026;28;20041;-71
2023/06/11 03:45:12;;;;;;;5.60;4.03;;;20.30;96.40;;;20.75;92.26;100887.84;5182668;28;20046;-71
2023/06/11 03:47:51;;;;;;;5.90;3.90;;;20.20;96.80;;;20.72;92.60;100893.16;5190294;28;20038;-70
2023/06/11 03:50:24;;;;;;;5.10;3.67;;;20.20;97.10;;;20.69;92.78;100893.19;5187782;28;20128;-70
2023/06/11 03:52:56;;;;;;;5.60;3.72;;;20.20;97.40;;;20.65;93.10;100890.53;5194928;28;20042;-70
2023/06/11 03:55:29;;;;;;;5.50;3.85;;;20.10;97.70;;;20.62;93.82;100896.75;5197619;28;20108;-70
2023/06/11 03:58:01;;;;;;;5.13;4.03;;;20.10;98.20;;;20.61;93.99;100902.94;5183921;28;20100;-70
2023/06/11 04:00:33;;;;;;;5.32;3.85;;;20.10;98.50;;;20.62;94.38;100899.41;5184746;28;20136;-70
2023/06/11 04:03:08;;;;;;;5.25;4.10;;;20.10;98.90;;;20.64;94.94;100909.97;5190728;28;20069;-70
2023/06/11 04:05:41;;;;;;;5.43;4.00;;;20.10;99.30;;;20.65;94.62;100907.31;5190941;28;20038;-70
2023/06/11 04:08:15;;;;;;;5.20;3.75;;;20.10;99.40;;;20.67;94.37;100905.56;5191859;28;20029;-70
2023/06/11 04:10:48;;;;;;;5.75;3.92;;;20.10;99.50;;;20.72;94.31;100909.03;5198735;28;20040;-70
2023/06/11 04:13:21;;;;;;;7.38;4.05;;;20.20;99.60;;;20.77;94.45;100904.59;5203314;28;20503;-70
2023/06/11 04:15:53;;;;;;;5.72;3.92;;;20.20;99.80;;;20.84;94.36;100916.94;5194012;28;20042;-70
2023/06/11 04:18:27;;;;;;;6.47;4.13;;;20.30;99.90;;;20.93;94.07;100912.47;5199830;28;20141;-70
2023/06/11 04:21:01;;;;;;;5.63;4.07;;;20.40;99.90;;;20.94;94.31;100920.41;5184145;28;20038;-69
2023/06/11 04:23:34;;;;;;;6.53;3.80;;;20.30;99.90;;;20.96;94.67;100920.41;5196654;28;20044;-70
2023/06/11 04:26:07;;;;;;;5.93;3.90;;;20.40;99.90;;;20.98;95.19;100913.31;5207676;28;20048;-70
2023/06/11 04:28:44;;;;;;;5.18;3.85;;;20.40;99.90;;;20.99;95.80;100918.59;5187663;28;20049;-71
2023/06/11 04:31:17;;;;;;;6.40;4.28;;;20.50;99.90;;;21.00;94.66;100916.88;5198313;28;20042;-70
2023/06/11 04:33:51;;;;;;;6.78;4.50;;;20.50;99.90;;;21.04;93.87;100918.59;5190605;28;20133;-70
2023/06/11 04:36:24;;;;;;;6.25;4.40;;;20.50;99.90;;;21.09;93.75;100919.44;5183566;28;20524;-70
2023/06/11 04:39:01;;;;;;;6.70;4.40;;;20.60;99.90;;;21.13;93.89;100915.91;5199036;28;20530;-71
2023/06/11 04:41:36;;;;;;;6.85;4.50;;;20.60;99.90;;;21.18;94.03;100913.19;5196410;28;20058;-71
2023/06/11 04:44:09;;;;;;;7.40;4.75;;;20.70;99.90;;;21.22;93.31;100914.94;5216826;28;20041;-72
2023/06/11 04:46:42;;;;;;;6.25;4.43;;;20.70;99.90;;;21.32;94.43;100912.25;5200328;28;20049;-71
2023/06/11 04:49:20;;;;;;;6.03;4.40;;;20.80;99.90;;;21.45;94.11;100913.00;5190992;28;20042;-71
2023/06/11 04:51:54;;;;;;;7.85;4.80;;;20.90;99.90;;;21.68;92.76;100912.84;5198356;28;20041;-71
2023/06/11 04:54:28;;;;;;;7.25;4.80;;;21.10;99.90;;;21.94;91.13;100913.47;5191563;28;20049;-72
2023/06/11 04:57:01;;;;;;;7.25;4.80;;;21.30;99.80;;;22.26;89.98;100914.94;5198129;28;20069;-72
2023/06/11 04:59:34;;;;;;;8.20;5.05;;;21.60;99.50;;;22.43;87.44;100920.94;5189078;28;20080;-72
2023/06/11 05:02:07;;;;;;;7.13;4.93;;;21.90;98.50;;;22.57;86.94;100915.47;5212038;28;20103;-71
2023/06/11 05:04:41;;;;;;;7.32;4.75;;;22.00;98.00;;;22.81;86.73;100906.25;5204617;28;20061;-72
2023/06/11 05:07:15;;;;;;;7.47;5.03;;;22.20;97.80;;;23.05;85.97;100904.19;5193301;28;20403;-71
2023/06/11 05:09:47;;;;;;;7.03;5.10;;;22.40;97.60;;;23.29;85.03;100904.72;5205590;28;20048;-73
2023/06/11 05:12:22;;;;;;;7.95;4.70;;;22.60;97.20;;;23.55;83.82;100914.06;5193302;28;20045;-72
2023/06/11 05:14:54;;;;;;;6.25;4.72;;;22.90;96.80;;;23.79;83.00;100915.41;5214516;28;20140;-72
2023/06/11 05:17:27;;;;;;;7.47;5.43;;;23.10;96.40;;;23.98;81.67;100907.97;5206888;28;20041;-72
2023/06/11 05:20:01;;;;;;;6.70;4.90;;;23.30;95.90;;;24.23;80.35;100916.38;5197746;28;20042;-71
2023/06/11 05:22:33;;;;;;;6.10;4.95;;;23.50;95.40;;;24.45;79.73;100915.09;5194518;28;20048;-72
2023/06/11 05:25:07;;;;;;;6.85;4.90;;;23.70;94.90;;;24.66;78.83;100918.22;5193427;28;20140;-74
2023/06/11 05:27:40;;;;;;;8.85;5.20;;;23.90;94.50;;;24.90;78.17;100925.66;5201918;28;20052;-72
2023/06/11 05:30:14;;;;;;;7.70;5.38;;;24.10;94.10;;;25.00;77.05;100927.22;5220233;28;20333;-73
2023/06/11 05:32:46;;;;;;;7.47;4.85;;;24.30;93.50;;;25.13;76.47;100926.06;5189960;28;20048;-71
2023/06/11 05:35:20;;;;;;;6.90;4.68;;;24.40;93.20;;;25.37;75.93;100931.75;5189576;28;20041;-71
2023/06/11 05:37:55;;;;;;;7.93;5.00;;;24.60;92.80;;;25.62;74.81;100929.34;5193601;28;20045;-73
2023/06/11 05:40:27;;;;;;;8.85;5.30;;;24.80;92.40;;;25.83;74.18;100933.31;5204831;28;20071;-72
2023/06/11 05:42:59;;;;;;;6.60;4.95;;;25.00;92.00;;;26.00;73.02;100941.72;5195820;28;20041;-72
2023/06/11 05:45:33;;;;;;;6.53;4.63;;;25.20;91.40;;;26.01;72.45;100931.91;5197869;28;20564;-71
2023/06/11 05:48:06;;;;;;;8.60;4.97;;;25.20;90.90;;;26.05;72.08;100939.81;5221125;28;20041;-73
2023/06/11 05:50:42;;;;;;;7.97;5.32;;;25.30;90.60;;;26.16;71.56;100942.22;5198341;28;20038;-72
2023/06/11 05:53:15;;;;;;;6.85;4.90;;;25.40;90.40;;;26.25;71.18;100942.81;5217007;23;20050;-73
2023/06/11 05:55:47;;;;;;;7.13;5.13;;;25.40;90.00;;;26.36;70.82;100949.69;5192427;28;20053;-72
2023/06/11 05:58:20;;;;;;;7.38;5.15;;;25.50;89.70;;;26.48;70.98;100960.06;5198308;28;20125;-71
2023/06/11 06:00:54;;;;;;;6.82;4.95;;;25.60;89.50;;;26.61;70.59;100953.44;5190595;28;20038;-74
2023/06/11 06:03:26;;;;;;;7.40;4.93;;;25.70;88.90;;;26.78;69.56;100953.78;5203751;28;20133;-62
2023/06/11 06:06:02;;;;;;;6.80;4.95;;;25.90;88.10;;;26.91;69.65;100948.09;5197302;28;20042;-57
2023/06/11 06:08:34;;;;;;;6.55;5.10;;;26.00;88.00;;;26.95;69.17;100955.09;5197077;28;20056;-58
2023/06/11 06:11:06;;;;;;;6.47;5.13;;;26.10;87.20;;;27.10;68.68;100954.66;5203907;28;20533;-57
2023/06/11 06:13:39;;;;;;;6.50;5.05;;;26.20;86.70;;;27.03;68.10;100961.97;5200814;28;20515;-59
2023/06/11 06:16:13;;;;;;;6.35;5.00;;;26.20;85.60;;;26.99;68.63;100962.09;5201300;28;20057;-58
2023/06/11 06:18:46;;;;;;;6.53;4.75;;;26.20;85.70;;;27.08;68.14;100969.88;5197645;28;20053;-58
2023/06/11 06:21:21;;;;;;;6.60;4.60;;;26.30;85.40;;;27.19;67.97;100964.19;5184817;28;20108;-58
2023/06/11 06:23:53;;;;;;;7.35;4.82;;;26.40;85.20;;;27.24;67.54;100963.13;5192180;28;20038;-60
2023/06/11 06:26:25;;;;;;;6.95;4.72;;;26.40;84.50;;;27.35;66.83;100964.59;5191891;28;20045;-59
2023/06/11 06:28:57;;;;;;;6.22;4.55;;;26.50;83.90;;;27.50;65.92;100961.41;5183437;28;20145;-60
2023/06/11 06:31:30;;;;;;;6.95;4.95;;;26.60;83.00;;;27.65;66.47;100963.59;5196434;28;20050;-58
2023/06/11 06:34:02;;;;;;;6.82;4.90;;;26.70;83.40;;;27.83;65.64;100971.03;5190701;28;20033;-58
2023/06/11 06:36:39;;;;;;;6.45;4.63;;;26.90;82.40;;;27.96;65.17;100967.94;5196124;28;20486;-59
2023/06/11 06:39:14;;;;;;;6.93;4.70;;;27.00;82.00;;;27.92;65.02;100969.00;5186959;28;20046;-61
2023/06/11 06:41:46;;;;;;;7.57;4.88;;;27.10;81.40;;;27.90;65.24;100963.66;5195771;28;20077;-61
2023/06/11 06:44:19;;;;;;;6.65;5.03;;;27.10;81.20;;;27.97;64.93;100969.69;5192760;28;20042;-59
2023/06/11 06:46:53;;;;;;;8.27;4.40;;;27.10;81.20;;;27.81;63.84;100972.91;5192081;28;20049;-59
2023/06/11 06:49:28;;;;;;;4.90;4.07;;;27.00;79.40;;;27.67;64.64;100977.81;5184092;28;20049;-60
2023/06/11 06:52:02;;;;;;;5.47;4.38;;;26.90;80.00;;;27.67;64.99;100967.09;5185602;28;20046;-59
2023/06/11 06:54:35;;;;;;;5.78;4.20;;;26.90;80.10;;;27.68;64.89;100979.59;5197456;28;20037;-60
2023/06/11 06:57:09;;;;;;;5.72;4.20;;;26.90;80.10;;;27.69;64.50;100975.97;5197633;28;20049;-59
2023/06/11 06:59:41;;;;;;;6.90;4.47;;;26.90;79.80;;;27.67;64.57;100980.50;5196166;28;20584;-59
2023/06/11 07:02:14;;;;;;;6.38;4.38;;;26.90;79.60;;;27.75;64.58;100980.25;5198118;28;20640;-59
2023/06/11 07:04:46;;;;;;;6.28;4.28;;;26.90;79.70;;;27.81;64.74;100974.69;5199574;28;20514;-62
2023/06/11 07:07:19;;;;;;;5.70;4.38;;;27.00;79.80;;;27.81;64.15;100980.94;5183046;28;20046;-56
2023/06/11 07:09:51;;;;;;;8.10;4.97;;;27.00;79.00;;;27.65;64.10;100978.78;5182894;28;20052;-56
2023/06/11 07:12:24;;;;;;;6.68;4.10;;;26.90;78.70;;;27.46;64.70;100983.88;5188285;28;20530;-57
2023/06/11 07:14:56;;;;;;;6.75;4.45;;;26.80;79.00;;;27.36;65.07;100987.75;5199803;28;20037;-58
2023/06/11 07:17:28;;;;;;;6.43;4.40;;;26.70;79.10;;;27.36;65.52;100987.75;5201637;28;20052;-57
2023/06/11 07:20:01;;;;;;;5.70;4.53;;;26.60;79.60;;;27.35;65.10;101002.06;5201312;28;20132;-57
2023/06/11 07:22:34;;;;;;;6.30;4.22;;;26.60;79.20;;;27.33;65.14;100999.44;5194945;28;20041;-59
2023/06/11 07:25:07;;;;;;;5.22;4.20;;;26.60;79.30;;;27.56;65.53;100991.53;5194298;28;20129;-59
2023/06/11 07:27:40;;;;;;;6.03;4.45;;;26.70;79.90;;;27.77;64.73;100998.03;5190332;28;20045;-57
2023/06/11 07:30:14;;;;;;;7.00;4.43;;;26.80;79.20;;;27.96;64.06;100990.25;5181363;28;20088;-57
2023/06/11 07:32:47;;;;;;;6.90;4.18;;;27.00;78.90;;;28.01;63.18;101003.50;5188471;28;20067;-57
2023/06/11 07:35:20;;;;;;;5.85;4.20;;;27.10;78.00;;;28.07;63.27;100992.56;5201647;28;20099;-56
2023/06/11 07:37:55;;;;;;;5.72;4.53;;;27.20;78.00;;;28.17;63.85;100999.38;5198135;28;20414;-57
2023/06/11 07:40:28;;;;;;;6.35;4.45;;;27.20;78.20;;;28.23;62.73;100991.09;5197424;28;20126;-57
2023/06/11 07:43:00;;;;;;;5.57;4.00;;;27.30;77.50;;;28.32;63.28;100992.63;5192425;28;20119;-58
2023/06/11 07:45:35;;;;;;;5.93;4.00;;;27.40;77.60;;;28.38;62.53;100998.63;5189716;28;20050;-58
2023/06/11 07:48:07;;;;;;;5.68;3.90;;;27.50;77.00;;;28.64;62.60;100988.78;5185268;28;20049;-57
2023/06/11 07:50:40;;;;;;;5.60;4.13;;;27.60;77.30;;;29.04;62.21;100987.28;5199520;28;20056;-55
2023/06/11 07:53:14;;;;;;;6.47;4.10;;;27.90;77.50;;;29.44;61.64;100982.09;5182587;28;20038;-56
2023/06/11 07:55:49;;;;;;;4.38;3.75;;;28.10;77.30;;;29.90;61.07;100990.94;5202466;28;20042;-55
2023/06/11 07:58:21;;;;;;;6.30;4.00;;;28.50;77.00;;;30.21;59.01;100990.53;5191455;28;20049;-57
2023/06/11 08:00:53;;;;;;;6.35;4.05;;;28.70;74.90;;;30.57;58.38;100999.72;5197154;28;20049;-55
2023/06/11 08:03:26;;;;;;;6.90;4.32;;;29.00;74.40;;;30.67;57.15;100995.69;5201337;28;20045;-55
2023/06/11 08:05:58;;;;;;;5.47;4.03;;;29.10;73.20;;;31.17;57.00;100996.06;5202547;28;20038;-58
2023/06/11 08:08:32;;;;;;;5.85;3.72;;;29.40;73.50;;;31.64;55.71;101008.19;5191548;28;20049;-58
2023/06/11 08:11:04;;;;;;;5.40;3.75;;;29.60;72.60;;;31.99;53.99;101004.59;5190734;28;20038;-61
2023/06/11 08:13:36;;;;;;;5.68;4.00;;;29.90;70.40;;;32.32;53.05;100990.31;5193169;28;20037;-58
2023/06/11 08:16:08;;;;;;;4.38;3.50;;;30.10;69.90;;;32.71;52.46;100997.28;5196894;28;20037;-57
2023/06/11 08:18:40;;;;;;;6.40;3.60;;;30.30;69.40;;;33.30;51.71;100996.69;5191080;28;20048;-58
2023/06/11 08:21:12;;;;;;;4.97;3.53;;;30.60;69.10;;;33.85;50.65;100998.06;5200246;28;20049;-58
2023/06/11 08:23:45;;;;;;;5.15;3.53;;;30.90;68.20;;;34.59;48.74;100999.91;5195820;28;20049;-57
2023/06/11 08:26:19;;;;;;;4.65;3.42;;;31.30;66.40;;;35.29;47.32;100990.91;5195952;28;20516;-57
2023/06/11 08:28:51;;;;;;;4.47;3.20;;;31.70;65.30;;;36.14;45.35;100997.88;5193887;28;20055;-58
2023/06/11 08:31:24;;;;;;;4.32;3.20;;;32.20;64.00;;;36.90;43.97;100994.31;5193106;28;20052;-57
2023/06/11 08:33:56;;;;;;;4.20;3.00;;;32.70;62.50;;;37.85;42.64;100987.28;5191187;28;20065;-58
2023/06/11 08:36:28;;;;;;;4.90;3.67;;;33.50;61.10;;;38.14;41.72;100990.47;5205470;28;20037;-57
2023/06/11 08:39:03;;;;;;;4.03;3.10;;;33.90;59.10;;;38.23;41.50;100991.63;5190180;28;20046;-58
2023/06/11 08:41:36;;;;;;;5.20;3.25;;;34.20;58.30;;;38.89;41.14;100984.56;5189809;28;20152;-58
2023/06/11 08:44:08;;;;;;;4.63;3.30;;;34.90;57.90;;;38.47;40.45;100988.84;5204886;28;20381;-58
2023/06/11 08:46:40;;;;;;;4.72;3.15;;;34.80;56.20;;;38.72;39.74;100987.78;5186403;28;20397;-59
2023/06/11 08:49:21;;;;;;;5.07;3.13;;;35.10;55.50;;;39.17;39.10;100976.88;5194683;28;20060;-58
2023/06/11 08:51:55;;;;;;;4.32;3.30;;;35.60;54.60;;;39.02;38.96;100971.66;5190813;28;20042;-59
2023/06/11 08:54:28;;;;;;;3.92;3.10;;;35.60;54.00;;;38.88;39.60;100977.38;5193198;28;20034;-59
2023/06/11 08:57:00;;;;;;;4.10;2.88;;;35.60;54.20;;;38.99;39.27;100977.34;5193886;28;20417;-58
2023/06/11 08:59:33;;;;;;;4.18;2.80;;;35.60;53.80;;;39.30;38.57;100983.03;5193523;28;20041;-58
2023/06/11 09:02:06;;;;;;;3.63;2.97;;;35.80;53.00;;;39.60;38.18;100969.59;5191484;28;20048;-59
2023/06/11 09:04:41;;;;;;;3.13;2.58;;;36.00;52.80;;;39.31;37.56;100962.94;5193864;28;20041;-57
2023/06/11 09:07:24;;;;;;;3.60;2.83;;;35.90;51.90;;;39.26;37.54;100971.53;5192462;28;20045;-59
2023/06/11 09:10:11;;;;;;;4.28;3.05;;;35.90;51.90;;;39.08;37.81;100968.44;5202157;28;20406;-58
2023/06/11 09:12:44;;;;;;;5.47;2.90;;;35.70;51.80;;;39.23;37.55;100970.91;5187988;28;20481;-56
2023/06/11 09:15:17;;;;;;;3.10;2.80;;;35.80;51.80;;;38.61;37.79;100963.25;5195039;28;20049;-59
2023/06/11 09:17:51;;;;;;;4.05;3.00;;;35.50;51.40;;;38.05;38.47;100961.25;5193507;28;20050;-58
2023/06/11 09:20:27;;;;;;;3.78;3.13;;;35.10;51.90;;;37.93;38.91;100973.09;5201023;28;20076;-58
2023/06/11 09:23:03;;;;;;;4.45;3.33;;;35.00;52.10;;;37.15;39.46;100966.22;5200598;28;20041;-57
2023/06/11 09:25:39;;;;;;;5.75;3.17;;;34.60;52.30;;;35.26;42.14;100952.28;5188717;28;20048;-58
2023/06/11 09:28:11;;;;;;;5.57;3.53;;;33.70;53.20;;;34.65;43.36;100951.69;5195529;28;20057;-56
2023/06/11 09:30:54;;;;;;;4.68;3.33;;;33.10;54.50;;;34.32;43.59;100959.19;5196419;28;20117;-57
2023/06/11 09:33:28;;;;;;;3.92;3.08;;;32.80;54.50;;;34.23;44.58;100960.59;5183610;28;20053;-62
2023/06/11 09:36:00;;;;;;;4.75;3.35;;;32.70;55.20;;;34.21;44.14;100967.94;5185049;28;20053;-58
2023/06/11 09:38:35;;;;;;;3.70;3.17;;;32.80;55.00;;;33.67;45.08;100962.16;5192407;28;20041;-59
2023/06/11 09:41:08;;;;;;;4.95;3.30;;;32.50;55.40;;;32.89;45.49;100961.22;5194692;28;20092;-58
2023/06/11 09:43:40;;;;;;;5.90;3.90;;;32.00;55.20;;;32.12;46.47;100957.19;5195405;28;20501;-56
2023/06/11 09:46:13;;;;;;;4.85;3.42;;;31.50;55.70;;;31.99;47.23;100956.09;5195291;28;20084;-60
2023/06/11 09:48:46;;;;;;;4.50;3.35;;;31.30;56.50;;;32.09;47.11;100961.88;5193904;28;20049;-59
2023/06/11 09:51:23;;;;;;;5.13;3.45;;;31.20;56.50;;;31.91;46.51;100966.41;5189334;28;20413;-57
2023/06/11 09:53:56;;;;;;;5.00;3.47;;;31.10;55.80;;;31.52;46.65;100972.81;5192581;28;20529;-61
2023/06/11 09:56:33;;;;;;;4.00;3.53;;;30.90;56.10;;;31.25;47.97;100958.88;5192895;28;20071;-61
2023/06/11 09:59:06;;;;;;;4.68;3.45;;;30.60;56.80;;;31.36;47.97;100950.25;5192230;28;20116;-62
2023/06/11 10:01:41;;;;;;;5.40;3.60;;;30.60;57.10;;;31.51;46.87;100965.69;5194475;28;20117;-56
2023/06/11 10:04:13;;;;;;;5.15;3.70;;;30.70;56.20;;;31.44;46.97;100966.06;5194063;28;20041;-60
2023/06/11 10:06:49;;;;;;;4.13;3.40;;;30.60;56.30;;;31.69;47.28;100957.63;5192651;28;20041;-59
2023/06/11 10:09:22;;;;;;;5.45;3.67;;;30.80;56.90;;;31.89;45.92;100960.22;5192225;28;20050;-59
2023/06/11 10:11:56;;;;;;;7.10;3.63;;;30.90;55.70;;;31.79;45.01;100957.13;5194485;28;20041;-60
2023/06/11 10:14:31;;;;;;;6.38;3.92;;;30.90;54.50;;;31.59;44.85;100955.41;5188386;28;20042;-58
2023/06/11 10:17:09;;;;;;;5.00;3.70;;;30.80;54.40;;;31.77;44.61;100958.13;5193772;28;20037;-59
2023/06/11 10:19:41;;;;;;;6.80;3.50;;;30.90;54.50;;;31.74;43.58;100956.44;5193999;28;20046;-57
2023/06/11 10:22:13;;;;;;;4.45;3.20;;;30.90;53.50;;;31.84;43.85;100964.97;5197123;28;20041;-56
2023/06/11 10:25:00;;;;;;;5.78;3.47;;;30.90;53.80;;;31.87;44.12;100956.72;5197188;28;20041;-58
2023/06/11 10:27:39;;;;;;;5.00;3.28;;;31.00;53.60;;;32.05;43.21;100955.78;5190317;28;20571;-59
2023/06/11 10:30:12;;;;;;;7.03;3.45;;;31.10;53.30;;;32.10;42.29;100964.50;5196252;28;20334;-57
2023/06/11 10:32:50;;;;;;;5.50;3.58;;;31.10;53.00;;;32.16;43.03;100951.66;5195087;28;20045;-58
2023/06/11 10:35:24;;;;;;;5.05;3.70;;;31.20;53.00;;;32.22;42.83;100959.41;5190962;28;20041;-56
2023/06/11 10:38:04;;;;;;;4.78;3.22;;;31.30;53.00;;;32.07;42.81;100952.97;5190274;28;20052;-58
2023/06/11 10:40:38;;;;;;;4.90;3.63;;;31.20;52.70;;;32.07;42.17;100959.25;5192800;28;20065;-58